Time;durP1;ratioP1;P1;durP2;ratioP2;P2;SDS_P1;SDS_P2;PMS_P1;PMS_P2;Temp;Humidity;BMP_temperature;BMP_pressure;BME280_temperature;BME280_humidity;BME280_pressure;Samples;Min_cycle;Max_cycle;Signal;HPM_P1;HPM_P2
2023/12/15 00:00:25;;;;;;;2.58;2.38;;;;;;;5.23;100.00;99760.69;4087085;28;20673;-44
2023/12/15 00:02:27;;;;;;;2.20;2.10;;;;;;;5.22;100.00;99764.44;4102342;28;20291;-45
2023/12/15 00:04:29;;;;;;;6.65;2.88;;;;;;;5.26;100.00;99766.59;4101086;28;20269;-45
2023/12/15 00:06:31;;;;;;;2.00;1.80;;;;;;;5.22;100.00;99775.31;4103889;28;20221;-45
2023/12/15 00:08:32;;;;;;;2.67;2.47;;;;;;;5.21;100.00;99774.44;4104327;28;20875;-45
2023/12/15 00:10:35;;;;;;;2.00;1.90;;;;;;;5.37;100.00;99773.44;4091706;28;20223;-45
2023/12/15 00:12:36;;;;;;;2.75;2.55;;;;;;;5.31;100.00;99768.75;4088253;28;20216;-44
2023/12/15 00:14:38;;;;;;;2.00;1.77;;;;;;;5.32;100.00;99765.84;4106488;28;20206;-45
2023/12/15 00:16:40;;;;;;;2.45;2.25;;;;;;;5.26;100.00;99765.75;4087795;28;20211;-44
2023/12/15 00:18:41;;;;;;;2.58;2.38;;;;;;;5.25;100.00;99775.78;4106145;28;20210;-45
2023/12/15 00:20:43;;;;;;;3.05;2.85;;;;;;;5.24;100.00;99768.63;4106873;28;20219;-45
2023/12/15 00:22:45;;;;;;;2.75;2.55;;;;;;;5.26;100.00;99772.03;4107040;28;20254;-45
2023/12/15 00:24:47;;;;;;;2.63;2.42;;;;;;;5.25;100.00;99781.19;4089963;28;20330;-45
2023/12/15 00:26:48;;;;;;;3.30;3.10;;;;;;;5.33;100.00;99772.09;4108427;28;20300;-45
2023/12/15 00:28:50;;;;;;;3.22;3.03;;;;;;;5.33;100.00;99769.41;4092453;28;20259;-45
2023/12/15 00:30:52;;;;;;;3.58;3.28;;;;;;;5.26;100.00;99782.03;4089914;28;20232;-45
2023/12/15 00:32:54;;;;;;;3.63;2.45;;;;;;;5.25;100.00;99780.34;4108174;28;20684;-45
2023/12/15 00:34:55;;;;;;;4.05;3.33;;;;;;;5.43;100.00;99778.94;4105026;28;20928;-45
2023/12/15 00:36:57;;;;;;;3.42;2.80;;;;;;;5.31;100.00;99782.31;4106762;28;20239;-45
2023/12/15 00:38:59;;;;;;;3.47;3.03;;;;;;;5.32;100.00;99792.13;4106603;28;20274;-45
2023/12/15 00:41:04;;;;;;;3.60;3.30;;;;;;;5.42;100.00;99787.28;4091395;28;20207;-45
2023/12/15 00:43:05;;;;;;;2.65;2.25;;;;;;;5.40;100.00;99783.91;4106017;28;20672;-44
2023/12/15 00:45:08;;;;;;;1.92;1.83;;;;;;;5.32;100.00;99794.84;4092094;28;20279;-45
2023/12/15 00:47:09;;;;;;;1.98;1.73;;;;;;;5.29;100.00;99792.53;4106864;28;20285;-45
2023/12/15 00:49:11;;;;;;;5.90;2.05;;;;;;;5.30;100.00;99794.19;4107906;28;20869;-45
2023/12/15 00:51:13;;;;;;;2.20;1.70;;;;;;;5.28;100.00;99796.22;4094952;28;20592;-45
2023/12/15 00:53:14;;;;;;;2.90;2.70;;;;;;;5.21;100.00;99795.28;4089981;28;20215;-45
2023/12/15 00:55:16;;;;;;;1.88;1.77;;;;;;;5.41;100.00;99797.28;4092107;28;20873;-45
2023/12/15 00:57:18;;;;;;;1.42;1.33;;;;;;;5.21;100.00;99808.84;4106929;28;20301;-45
2023/12/15 00:59:20;;;;;;;2.28;1.92;;;;;;;5.16;100.00;99816.72;4105119;28;20210;-45
2023/12/15 01:01:22;;;;;;;2.50;2.30;;;;;;;5.00;100.00;99818.75;4106803;28;20246;-45
2023/12/15 01:03:24;;;;;;;2.35;1.88;;;;;;;5.10;100.00;99821.00;4109024;28;20215;-45
2023/12/15 01:05:25;;;;;;;2.17;2.08;;;;;;;5.17;100.00;99821.13;4109063;28;20231;-45
2023/12/15 01:07:30;;;;;;;2.10;1.98;;;;;;;5.12;100.00;99820.00;4104046;28;20329;-45
2023/12/15 01:09:32;;;;;;;2.30;2.00;;;;;;;5.12;100.00;99823.53;4095133;28;20316;-45
2023/12/15 01:11:34;;;;;;;2.00;1.85;;;;;;;5.07;100.00;99824.09;4105139;28;20224;-45
2023/12/15 01:13:36;;;;;;;2.92;2.35;;;;;;;5.08;100.00;99830.34;4106456;28;20309;-45
2023/12/15 01:15:37;;;;;;;2.28;2.17;;;;;;;5.17;100.00;99826.56;4106245;28;20203;-45
2023/12/15 01:17:39;;;;;;;2.13;2.03;;;;;;;5.09;100.00;99834.78;4104928;28;20235;-45
2023/12/15 01:19:41;;;;;;;2.08;1.90;;;;;;;5.14;100.00;99832.31;4095952;28;20776;-43
2023/12/15 01:21:44;;;;;;;3.13;2.92;;;;;;;5.21;100.00;99833.28;4089964;28;20299;-46
2023/12/15 01:23:45;;;;;;;2.03;1.88;;;;;;;5.15;100.00;99834.03;4104022;28;21038;-46
2023/12/15 01:25:47;;;;;;;1.85;1.75;;;;;;;5.14;100.00;99837.75;4104890;28;20230;-45
2023/12/15 01:27:49;;;;;;;4.63;2.70;;;;;;;5.16;100.00;99846.56;4106913;28;20249;-47
2023/12/15 01:29:50;;;;;;;2.33;2.13;;;;;;;5.18;100.00;99839.09;4087414;28;20207;-44
2023/12/15 01:31:52;;;;;;;2.38;2.28;;;;;;;5.25;100.00;99842.75;4085416;28;20255;-43
2023/12/15 01:33:54;;;;;;;2.38;2.08;;;;;;;5.15;100.00;99840.28;4093785;28;20211;-45
2023/12/15 01:35:56;;;;;;;2.60;2.47;;;;;;;5.11;100.00;99843.56;4104347;28;20210;-44
2023/12/15 01:37:57;;;;;;;2.50;2.38;;;;;;;5.21;100.00;99844.13;4106259;28;20239;-44
2023/12/15 01:40:00;;;;;;;2.08;1.98;;;;;;;5.17;100.00;99848.25;4104159;28;20250;-44
2023/12/15 01:42:01;;;;;;;1.85;1.75;;;;;;;5.15;100.00;99844.91;4106536;28;20222;-44
2023/12/15 01:44:03;;;;;;;1.90;1.80;;;;;;;5.17;100.00;99850.97;4105802;28;20648;-44
2023/12/15 01:46:05;;;;;;;2.92;2.72;;;;;;;5.10;100.00;99850.00;4105128;28;20237;-44
2023/12/15 01:48:15;;;;;;;3.08;2.88;;;;;;;5.16;100.00;99849.28;4088057;28;20231;-44
2023/12/15 01:50:17;;;;;;;2.55;2.28;;;;;;;5.16;100.00;99871.00;4102446;28;20632;-44
2023/12/15 01:52:19;;;;;;;2.47;2.28;;;;;;;5.12;100.00;99864.22;4090109;28;20666;-44
2023/12/15 01:54:21;;;;;;;3.67;1.95;;;;;;;5.16;100.00;99865.56;4104167;28;20210;-44
2023/12/15 01:56:22;;;;;;;2.08;1.98;;;;;;;5.04;100.00;99867.03;4103332;28;20208;-44
2023/12/15 01:58:24;;;;;;;2.53;2.42;;;;;;;4.95;100.00;99870.84;4092371;28;20937;-44
2023/12/15 02:00:26;;;;;;;3.45;3.25;;;;;;;4.96;100.00;99877.94;4103048;28;20682;-44
2023/12/15 02:02:28;;;;;;;3.35;2.08;;;;;;;4.92;100.00;99876.59;4098648;28;20803;-44
2023/12/15 02:04:29;;;;;;;2.55;2.35;;;;;;;5.01;100.00;99880.94;4087359;28;20219;-44
2023/12/15 02:06:31;;;;;;;1.92;1.83;;;;;;;4.89;100.00;99878.84;4088867;28;21204;-44
2023/12/15 02:08:33;;;;;;;2.05;1.95;;;;;;;4.88;100.00;99885.28;4094222;28;20212;-44
2023/12/15 02:10:38;;;;;;;2.25;2.05;;;;;;;4.84;100.00;99881.22;4105359;28;20202;-44
2023/12/15 02:12:40;;;;;;;2.55;2.35;;;;;;;4.89;100.00;99882.41;4088482;28;20222;-44
2023/12/15 02:14:43;;;;;;;2.25;1.60;;;;;;;4.82;100.00;99884.16;4088695;28;20215;-44
2023/12/15 02:16:44;;;;;;;2.28;2.17;;;;;;;4.79;100.00;99887.19;4104064;28;20233;-44
2023/12/15 02:18:46;;;;;;;2.97;1.90;;;;;;;4.75;100.00;99894.03;4103932;28;20212;-44
2023/12/15 02:20:48;;;;;;;2.42;2.15;;;;;;;4.81;100.00;99901.41;4104764;28;20665;-44
2023/12/15 02:22:49;;;;;;;2.85;2.65;;;;;;;4.71;100.00;99891.81;4087919;28;20665;-44
2023/12/15 02:24:51;;;;;;;2.13;2.03;;;;;;;4.81;100.00;99903.31;4104153;28;20314;-44
2023/12/15 02:26:53;;;;;;;2.33;2.22;;;;;;;4.69;100.00;99897.44;4104860;28;20226;-44
2023/12/15 02:28:55;;;;;;;2.38;2.20;;;;;;;4.64;100.00;99905.28;4090479;28;20211;-44
2023/12/15 02:30:56;;;;;;;2.47;2.17;;;;;;;4.62;100.00;99895.63;4093669;28;20213;-44
2023/12/15 02:32:58;;;;;;;2.13;2.03;;;;;;;4.67;100.00;99899.47;4105626;28;20230;-44
2023/12/15 02:35:01;;;;;;;1.75;1.65;;;;;;;4.63;100.00;99909.00;4104112;28;20255;-44
2023/12/15 02:37:02;;;;;;;2.30;2.20;;;;;;;4.62;100.00;99912.75;4090045;28;20228;-44
2023/12/15 02:39:04;;;;;;;1.92;1.83;;;;;;;4.74;100.00;99905.88;4107964;28;20270;-44
2023/12/15 02:41:10;;;;;;;1.40;1.30;;;;;;;4.68;100.00;99911.19;4089333;28;20207;-44
2023/12/15 02:43:12;;;;;;;2.03;1.90;;;;;;;4.77;100.00;99915.50;4110850;28;20203;-44
2023/12/15 02:45:14;;;;;;;2.15;2.05;;;;;;;4.64;100.00;99910.69;4103797;28;20604;-47
2023/12/15 02:47:15;;;;;;;3.47;2.60;;;;;;;4.65;100.00;99923.22;4103804;28;20696;-44
2023/12/15 02:49:18;;;;;;;2.88;2.65;;;;;;;4.62;100.00;99929.00;4102830;28;20226;-44
2023/12/15 02:51:27;;;;;;;2.10;1.92;;;;;;;4.59;100.00;99913.09;4102780;28;20780;-43
2023/12/15 02:53:29;;;;;;;1.67;1.58;;;;;;;4.44;100.00;99912.16;4087753;28;20270;-44
2023/12/15 02:55:31;;;;;;;1.60;1.50;;;;;;;4.60;100.00;99922.06;4105779;28;20203;-44
2023/12/15 02:57:33;;;;;;;2.15;2.05;;;;;;;4.53;100.00;99924.63;4087282;28;20660;-44
2023/12/15 02:59:35;;;;;;;2.22;1.98;;;;;;;4.52;100.00;99925.66;4091428;28;20218;-44
2023/12/15 03:01:37;;;;;;;3.05;2.17;;;;;;;4.57;100.00;99925.13;4084873;28;20259;-46
2023/12/15 03:03:39;;;;;;;1.63;1.50;;;;;;;4.50;100.00;99935.84;4103912;28;20206;-44
2023/12/15 03:05:40;;;;;;;2.08;1.98;;;;;;;4.50;100.00;99930.41;4103695;28;20234;-44
2023/12/15 03:07:42;;;;;;;1.30;1.30;;;;;;;4.41;100.00;99939.59;4085976;28;20751;-44
2023/12/15 03:09:44;;;;;;;2.45;2.35;;;;;;;4.50;100.00;99935.84;4089157;28;20605;-44
2023/12/15 03:11:46;;;;;;;1.50;1.40;;;;;;;4.47;100.00;99933.47;4087286;28;20633;-44
2023/12/15 03:13:47;;;;;;;1.75;1.65;;;;;;;4.52;100.00;99932.94;4091021;28;20281;-44
2023/12/15 03:15:49;;;;;;;2.33;2.13;;;;;;;4.42;100.00;99930.47;4085938;28;20200;-44
2023/12/15 03:17:51;;;;;;;1.92;1.83;;;;;;;4.42;100.00;99929.59;4102033;28;20242;-44
2023/12/15 03:19:52;;;;;;;3.80;2.65;;;;;;;4.57;100.00;99925.97;4091941;28;20211;-44
2023/12/15 03:21:54;;;;;;;2.53;2.42;;;;;;;4.53;100.00;99929.22;4089987;28;20705;-44
2023/12/15 03:23:56;;;;;;;1.85;1.75;;;;;;;4.60;100.00;99933.75;4088364;28;20216;-44
2023/12/15 03:25:58;;;;;;;1.83;1.73;;;;;;;4.46;100.00;99928.25;4087137;28;20220;-44
2023/12/15 03:28:00;;;;;;;1.40;1.30;;;;;;;4.50;100.00;99933.13;4104504;28;20234;-44
2023/12/15 03:30:02;;;;;;;2.53;2.38;;;;;;;4.52;100.00;99925.66;4085803;28;20215;-44
2023/12/15 03:32:04;;;;;;;3.30;3.10;;;;;;;4.50;100.00;99930.41;4101915;28;20238;-44
2023/12/15 03:34:05;;;;;;;1.80;1.70;;;;;;;4.34;100.00;99930.47;4103504;28;20669;-44
2023/12/15 03:36:07;;;;;;;2.20;2.00;;;;;;;4.42;100.00;99933.19;4103482;28;20226;-44
2023/12/15 03:38:11;;;;;;;3.00;2.70;;;;;;;4.36;100.00;99933.88;4089091;28;20239;-44
2023/12/15 03:40:14;;;;;;;1.55;1.45;;;;;;;4.41;100.00;99939.59;4102341;28;20211;-44
2023/12/15 03:42:15;;;;;;;2.80;1.95;;;;;;;4.39;100.00;99936.22;4102997;28;20222;-44
2023/12/15 03:44:17;;;;;;;2.60;2.35;;;;;;;4.39;100.00;99938.94;4091642;28;20214;-44
2023/12/15 03:46:19;;;;;;;3.17;2.90;;;;;;;4.43;100.00;99934.88;4108264;28;20273;-45
2023/12/15 03:48:20;;;;;;;2.65;2.42;;;;;;;4.38;100.00;99939.97;4105361;28;20242;-46
2023/12/15 03:50:23;;;;;;;2.67;2.47;;;;;;;4.36;100.00;99950.13;4107823;28;20215;-44
2023/12/15 03:52:25;;;;;;;2.13;2.03;;;;;;;4.38;100.00;99958.06;4088438;28;20211;-44
2023/12/15 03:54:27;;;;;;;2.72;2.50;;;;;;;4.46;100.00;99966.19;4105642;28;20301;-44
2023/12/15 03:56:29;;;;;;;2.70;2.60;;;;;;;4.49;100.00;99961.25;4105127;28;20686;-44
2023/12/15 03:58:30;;;;;;;2.90;2.70;;;;;;;4.57;100.00;99969.34;4105476;28;20612;-44
2023/12/15 04:00:32;;;;;;;2.92;2.75;;;;;;;4.60;100.00;99968.97;4090300;28;20207;-44
2023/12/15 04:02:34;;;;;;;2.17;1.95;;;;;;;4.58;100.00;99973.75;4105574;28;20214;-44
2023/12/15 04:04:36;;;;;;;2.42;1.90;;;;;;;4.63;100.00;99975.91;4088677;28;20215;-44
2023/12/15 04:06:38;;;;;;;2.60;2.47;;;;;;;4.79;100.00;99968.53;4106056;28;20289;-44
2023/12/15 04:08:41;;;;;;;3.00;2.72;;;;;;;4.79;100.00;99968.53;4092190;28;20211;-44
2023/12/15 04:10:43;;;;;;;2.55;2.22;;;;;;;4.73;100.00;99977.38;4107252;28;20206;-44
2023/12/15 04:12:45;;;;;;;2.10;2.00;;;;;;;4.73;100.00;99979.28;4089885;28;20207;-45
2023/12/15 04:14:46;;;;;;;3.47;3.28;;;;;;;4.88;100.00;99982.91;4089854;28;20258;-44
2023/12/15 04:16:48;;;;;;;2.45;2.35;;;;;;;4.73;100.00;99977.38;4094653;28;20223;-44
2023/12/15 04:18:50;;;;;;;2.78;2.22;;;;;;;4.73;100.00;99979.28;4094167;28;20691;-44
2023/12/15 04:20:52;;;;;;;3.75;2.90;;;;;;;4.79;100.00;99978.56;4089258;28;20203;-44
2023/12/15 04:22:54;;;;;;;3.45;3.15;;;;;;;4.80;100.00;99980.25;4088940;28;20234;-44
2023/12/15 04:24:55;;;;;;;2.60;2.40;;;;;;;4.82;100.00;99989.03;4089246;28;20216;-44
2023/12/15 04:26:57;;;;;;;3.28;3.08;;;;;;;4.80;100.00;99996.53;4107225;28;20266;-45
2023/12/15 04:28:59;;;;;;;4.75;4.35;;;;;;;4.90;100.00;99997.97;4106392;28;20632;-44
2023/12/15 04:31:01;;;;;;;2.92;2.45;;;;;;;4.80;100.00;100007.38;4093294;28;20215;-44
2023/12/15 04:33:03;;;;;;;3.13;2.90;;;;;;;4.87;100.00;100001.03;4091725;28;20216;-45
2023/12/15 04:35:05;;;;;;;3.05;2.75;;;;;;;4.91;100.00;99999.66;4106060;28;20211;-44
2023/12/15 04:37:07;;;;;;;3.20;2.90;;;;;;;4.97;100.00;100001.69;4107349;28;20803;-44
2023/12/15 04:39:09;;;;;;;3.50;3.13;;;;;;;5.00;100.00;100001.31;4095217;28;20222;-44
2023/12/15 04:41:21;;;;;;;3.47;3.17;;;;;;;4.94;100.00;100004.72;4109096;28;20651;-43
2023/12/15 04:43:22;;;;;;;3.65;3.35;;;;;;;4.89;100.00;100007.16;4102489;28;20348;-47
2023/12/15 04:45:24;;;;;;;2.83;2.55;;;;;;;4.97;100.00;100009.81;4105800;28;20210;-44
2023/12/15 04:47:27;;;;;;;3.80;3.45;;;;;;;4.98;100.00;100003.34;4087131;28;20343;-44
2023/12/15 04:49:29;;;;;;;3.15;2.95;;;;;;;5.00;100.00;100008.63;4102867;28;20242;-44
2023/12/15 04:51:30;;;;;;;5.03;3.90;;;;;;;5.01;100.00;100021.97;4106200;28;20218;-44
2023/12/15 04:53:32;;;;;;;3.13;2.70;;;;;;;4.97;100.00;100026.09;4106832;28;20219;-44
2023/12/15 04:55:34;;;;;;;2.88;2.50;;;;;;;4.95;100.00;100022.72;4106823;28;20215;-44
2023/12/15 04:57:35;;;;;;;3.67;3.40;;;;;;;4.97;100.00;100030.66;4092804;28;20232;-44
2023/12/15 04:59:40;;;;;;;5.78;5.28;;;;;;;4.98;100.00;100027.78;4104197;28;20656;-44
2023/12/15 05:01:43;;;;;;;7.28;3.10;;;;;;;4.98;100.00;100027.78;4103795;28;20338;-44
2023/12/15 05:03:45;;;;;;;2.53;2.33;;;;;;;4.99;100.00;100039.47;4092574;28;20199;-44
2023/12/15 05:05:47;;;;;;;3.40;2.97;;;;;;;5.08;100.00;100036.50;4089993;28;20215;-44
2023/12/15 05:07:49;;;;;;;3.72;3.42;;;;;;;5.06;100.00;100046.72;4088515;28;20244;-44
2023/12/15 05:09:51;;;;;;;3.65;3.35;;;;;;;5.03;100.00;100052.50;4106302;28;20219;-44
2023/12/15 05:11:53;;;;;;;4.15;3.75;;;;;;;5.03;100.00;100047.09;4103534;28;20633;-44
2023/12/15 05:13:54;;;;;;;3.53;3.28;;;;;;;5.09;100.00;100052.63;4092077;28;20211;-45
2023/12/15 05:15:56;;;;;;;4.22;3.88;;;;;;;5.09;100.00;100052.63;4087434;28;20236;-45
2023/12/15 05:17:58;;;;;;;7.32;2.72;;;;;;;5.17;100.00;100051.75;4108112;28;20231;-44
2023/12/15 05:20:02;;;;;;;4.82;4.30;;;;;;;5.07;100.00;100059.25;4108964;28;20211;-44
2023/12/15 05:22:04;;;;;;;5.38;4.97;;;;;;;5.19;100.00;100060.53;4087647;28;20218;-44
2023/12/15 05:24:06;;;;;;;4.82;4.53;;;;;;;5.14;100.00;100073.78;4105109;28;20304;-46
2023/12/15 05:26:07;;;;;;;6.05;4.43;;;;;;;5.15;100.00;100078.22;4104989;28;20697;-44
2023/12/15 05:28:09;;;;;;;4.18;3.85;;;;;;;5.22;100.00;100084.63;4102603;28;20744;-44
2023/12/15 05:30:12;;;;;;;8.80;4.88;;;;;;;5.31;100.00;100083.53;4088514;28;20216;-44
2023/12/15 05:32:14;;;;;;;4.93;4.43;;;;;;;5.25;100.00;100090.53;4104122;28;20215;-44
2023/12/15 05:34:16;;;;;;;4.97;4.57;;;;;;;5.19;100.00;100084.97;4105200;28;20211;-44
2023/12/15 05:36:19;;;;;;;4.40;4.03;;;;;;;5.24;100.00;100099.69;4106424;28;20204;-45
2023/12/15 05:38:20;;;;;;;5.15;4.70;;;;;;;5.16;100.00;100105.16;4103706;28;20333;-44
2023/12/15 05:40:22;;;;;;;9.00;5.75;;;;;;;5.17;100.00;100108.72;4090801;28;21521;-44
2023/12/15 05:42:25;;;;;;;4.47;3.00;;;;;;;5.21;100.00;100107.34;4105272;28;20277;-44
2023/12/15 05:44:27;;;;;;;5.10;4.60;;;;;;;5.20;100.00;100120.06;4085098;28;22918;-44
2023/12/15 05:46:28;;;;;;;6.05;5.57;;;;;;;5.08;100.00;100115.19;4109811;28;20660;-44
2023/12/15 05:48:30;;;;;;;5.38;4.85;;;;;;;5.07;100.00;100118.94;4100434;28;20680;-44
2023/12/15 05:50:32;;;;;;;4.93;4.45;;;;;;;5.06;100.00;100116.41;4095052;28;20207;-44
2023/12/15 05:52:37;;;;;;;11.07;5.57;;;;;;;5.14;100.00;100117.19;4106283;28;20207;-44
2023/12/15 05:54:42;;;;;;;10.25;5.78;;;;;;;5.17;100.00;100125.00;4094006;28;20699;-44
2023/12/15 05:56:43;;;;;;;6.38;4.88;;;;;;;5.18;100.00;100126.69;4105406;28;20321;-44
2023/12/15 05:58:45;;;;;;;3.65;3.35;;;;;;;5.14;100.00;100131.63;4091729;28;20212;-44
2023/12/15 06:00:49;;;;;;;5.10;4.63;;;;;;;5.18;100.00;100129.41;4100711;28;20203;-44
2023/12/15 06:02:51;;;;;;;5.05;4.55;;;;;;;5.18;100.00;100137.53;4091671;28;20284;-46
2023/12/15 06:04:53;;;;;;;6.40;5.85;;;;;;;5.11;100.00;100136.56;4089418;28;20203;-44
2023/12/15 06:06:55;;;;;;;4.15;3.78;;;;;;;5.06;100.00;100141.66;4103287;28;20282;-44
2023/12/15 06:08:56;;;;;;;4.65;4.13;;;;;;;5.03;100.00;100144.72;4091962;28;20207;-45
2023/12/15 06:10:58;;;;;;;5.00;4.65;;;;;;;5.07;100.00;100138.78;4104441;28;20217;-44
2023/12/15 06:13:00;;;;;;;5.40;5.03;;;;;;;5.09;100.00;100144.03;4099541;28;20211;-44
2023/12/15 06:15:01;;;;;;;6.63;4.38;;;;;;;5.06;100.00;100138.94;4088064;28;20207;-44
2023/12/15 06:17:06;;;;;;;5.85;5.28;;;;;;;5.00;100.00;100145.06;4089243;28;20231;-44
2023/12/15 06:19:08;;;;;;;5.95;4.05;;;;;;;4.91;100.00;100154.25;4086412;28;20211;-46
2023/12/15 06:21:19;;;;;;;13.55;5.90;;;;;;;4.89;100.00;100150.88;4104883;28;20226;-44
2023/12/15 06:23:21;;;;;;;6.47;5.68;;;;;;;4.91;100.00;100150.69;4108013;28;20210;-44
2023/12/15 06:25:23;;;;;;;5.70;5.13;;;;;;;4.86;100.00;100153.94;4088681;28;20673;-44
2023/12/15 06:27:25;;;;;;;5.72;5.22;;;;;;;4.85;100.00;100152.25;4088367;28;20236;-44
2023/12/15 06:29:26;;;;;;;6.60;5.75;;;;;;;4.79;100.00;100152.94;4103447;28;20772;-45
2023/12/15 06:31:29;;;;;;;6.93;6.32;;;;;;;4.77;100.00;100149.56;4105942;28;20203;-46
2023/12/15 06:33:30;;;;;;;6.25;5.85;;;;;;;4.85;100.00;100152.25;4092212;28;20299;-45
2023/12/15 06:35:33;;;;;;;7.07;6.45;;;;;;;4.93;100.00;100156.81;4087204;28;20223;-44
2023/12/15 06:37:34;;;;;;;6.60;5.55;;;;;;;4.85;100.00;100160.38;4100840;28;20713;-44
2023/12/15 06:39:36;;;;;;;4.43;4.05;;;;;;;4.90;100.00;100159.84;4100493;28;20300;-45
2023/12/15 06:41:38;;;;;;;8.95;5.00;;;;;;;4.92;100.00;100158.66;4084580;28;20607;-44
2023/12/15 06:43:41;;;;;;;6.65;6.10;;;;;;;5.00;100.00;100164.06;4072179;29;20208;-44
2023/12/15 06:45:43;;;;;;;6.35;5.85;;;;;;;4.92;100.00;100153.25;4091568;28;20740;-44
2023/12/15 06:47:44;;;;;;;5.50;5.00;;;;;;;4.91;100.00;100162.41;4087609;28;20735;-44
2023/12/15 06:49:46;;;;;;;6.18;5.65;;;;;;;4.93;100.00;100157.63;4086416;28;20208;-45
2023/12/15 06:51:48;;;;;;;4.93;4.50;;;;;;;5.01;100.00;100163.03;4104789;28;20261;-45
2023/12/15 06:53:50;;;;;;;6.32;5.88;;;;;;;4.94;100.00;100156.63;4107092;28;20211;-46
2023/12/15 06:55:52;;;;;;;5.47;5.03;;;;;;;5.00;100.00;100166.78;4104425;28;20263;-44
2023/12/15 06:57:53;;;;;;;4.43;4.13;;;;;;;5.03;100.00;100166.44;4102504;28;20609;-44
2023/12/15 06:59:56;;;;;;;9.55;4.03;;;;;;;5.06;100.00;100170.66;4086663;28;20207;-44
2023/12/15 07:01:57;;;;;;;6.85;5.32;;;;;;;5.02;100.00;100164.75;4086139;28;20256;-45
2023/12/15 07:03:59;;;;;;;20.48;6.97;;;;;;;5.06;100.00;100176.09;4071745;29;20724;-44
2023/12/15 07:06:01;;;;;;;4.15;3.85;;;;;;;5.13;100.00;100177.91;4105710;28;20246;-44
2023/12/15 07:08:04;;;;;;;4.28;3.85;;;;;;;4.97;100.00;100178.81;4103299;28;20290;-44
2023/12/15 07:10:06;;;;;;;5.13;4.30;;;;;;;5.02;100.00;100186.44;4102225;28;20210;-45
2023/12/15 07:12:08;;;;;;;5.20;4.80;;;;;;;5.09;100.00;100192.88;4083993;28;20231;-45
2023/12/15 07:14:11;;;;;;;6.60;6.00;;;;;;;5.05;100.00;100194.22;4090977;28;20208;-45
2023/12/15 07:16:12;;;;;;;4.75;4.38;;;;;;;5.10;100.00;100195.38;4107350;28;20214;-45
2023/12/15 07:18:14;;;;;;;5.75;5.25;;;;;;;5.13;100.00;100195.06;4079862;29;20227;-44
2023/12/15 07:20:16;;;;;;;3.05;2.75;;;;;;;5.16;100.00;100193.88;4107756;28;20297;-45
2023/12/15 07:22:17;;;;;;;5.03;4.55;;;;;;;5.07;100.00;100189.47;4092565;28;20211;-45
2023/12/15 07:24:21;;;;;;;4.35;3.97;;;;;;;5.12;100.00;100203.34;4092544;28;20215;-44
2023/12/15 07:26:23;;;;;;;3.67;3.38;;;;;;;5.09;100.00;100204.56;4089783;28;20255;-44
2023/12/15 07:28:25;;;;;;;7.40;4.13;;;;;;;5.14;100.00;100206.75;4091939;28;20239;-45
2023/12/15 07:30:27;;;;;;;4.47;4.18;;;;;;;5.18;100.00;100224.38;4085393;28;20215;-44
2023/12/15 07:32:29;;;;;;;3.30;3.00;;;;;;;5.13;100.00;100222.19;4090644;28;20207;-45
2023/12/15 07:34:31;;;;;;;4.82;4.45;;;;;;;5.22;100.00;100225.72;4089282;28;20215;-44
2023/12/15 07:36:32;;;;;;;5.60;5.18;;;;;;;5.28;100.00;100220.44;4106156;28;20265;-45
2023/12/15 07:38:34;;;;;;;5.22;4.82;;;;;;;5.31;100.00;100224.69;4094140;28;20215;-45
2023/12/15 07:40:36;;;;;;;3.63;3.38;;;;;;;5.23;100.00;100222.81;4090587;28;20211;-44
2023/12/15 07:42:38;;;;;;;4.28;4.00;;;;;;;5.26;100.00;100222.50;4092719;28;20211;-45
2023/12/15 07:44:39;;;;;;;6.05;5.45;;;;;;;5.30;100.00;100228.41;4093723;28;20207;-45
2023/12/15 07:46:42;;;;;;;4.57;3.35;;;;;;;5.27;100.00;100228.75;4095023;28;20370;-44
2023/12/15 07:48:44;;;;;;;3.83;3.53;;;;;;;5.26;100.00;100227.06;4092645;28;20605;-45
2023/12/15 07:50:46;;;;;;;4.05;3.70;;;;;;;5.28;100.00;100227.72;4091159;28;20253;-45
2023/12/15 07:52:49;;;;;;;3.50;3.20;;;;;;;5.24;100.00;100229.09;4091766;28;20215;-44
2023/12/15 07:54:54;;;;;;;2.67;2.47;;;;;;;5.32;100.00;100232.66;4093682;28;20266;-44
2023/12/15 07:56:56;;;;;;;3.28;2.95;;;;;;;5.33;100.00;100233.47;4106458;28;20230;-45
2023/12/15 07:58:58;;;;;;;3.20;3.00;;;;;;;5.34;100.00;100246.03;4093636;28;20258;-45
2023/12/15 08:01:00;;;;;;;3.78;3.47;;;;;;;5.33;100.00;100247.06;4105098;28;20219;-44
2023/12/15 08:03:01;;;;;;;3.17;2.97;;;;;;;5.27;100.00;100245.03;4093430;28;20222;-45
2023/12/15 08:05:03;;;;;;;3.00;2.70;;;;;;;5.30;100.00;100250.97;4110457;28;20211;-44
2023/12/15 08:07:05;;;;;;;2.97;2.78;;;;;;;5.25;100.00;100247.94;4096958;28;20318;-44
2023/12/15 08:09:07;;;;;;;3.38;3.08;;;;;;;5.27;100.00;100242.31;4101172;28;20210;-45
2023/12/15 08:11:11;;;;;;;4.22;3.83;;;;;;;5.31;100.00;100249.97;4100481;28;20212;-44
2023/12/15 08:13:13;;;;;;;3.03;2.83;;;;;;;5.29;100.00;100254.69;4091695;28;20243;-44
2023/12/15 08:15:15;;;;;;;3.83;3.53;;;;;;;5.36;100.00;100255.69;4086410;28;20271;-44
2023/12/15 08:17:17;;;;;;;2.88;2.67;;;;;;;5.38;100.00;100258.22;4103365;28;20231;-45
2023/12/15 08:19:22;;;;;;;4.20;3.80;;;;;;;5.35;100.00;100264.84;4092622;28;20206;-45
2023/12/15 08:21:25;;;;;;;3.00;2.80;;;;;;;5.47;100.00;100258.03;4094668;28;20712;-45
2023/12/15 08:23:27;;;;;;;6.80;2.95;;;;;;;5.47;100.00;100268.03;4094676;28;20206;-45
2023/12/15 08:25:29;;;;;;;3.63;3.33;;;;;;;5.53;100.00;100270.06;4099924;28;20211;-45
2023/12/15 08:27:31;;;;;;;4.70;3.50;;;;;;;5.53;100.00;100275.47;4089036;28;20227;-45
2023/12/15 08:29:32;;;;;;;7.07;3.60;;;;;;;5.49;100.00;100285.03;4093616;28;20208;-44
2023/12/15 08:31:34;;;;;;;3.72;3.42;;;;;;;5.56;100.00;100288.72;4080367;29;22831;-45
2023/12/15 08:33:36;;;;;;;5.25;3.03;;;;;;;5.54;100.00;100290.75;4092305;28;20226;-44
2023/12/15 08:35:38;;;;;;;2.50;2.30;;;;;;;5.64;100.00;100283.25;4106790;28;20716;-45
2023/12/15 08:37:39;;;;;;;3.78;3.47;;;;;;;5.59;100.00;100288.38;4110504;28;20313;-45
2023/12/15 08:39:41;;;;;;;3.63;3.33;;;;;;;5.64;100.00;100292.25;4092075;28;20294;-45
2023/12/15 08:41:43;;;;;;;4.18;3.88;;;;;;;5.60;100.00;100300.91;4095888;28;20277;-44
2023/12/15 08:43:44;;;;;;;2.85;2.65;;;;;;;5.71;100.00;100292.41;4092353;28;20222;-45
2023/12/15 08:45:46;;;;;;;2.92;2.70;;;;;;;5.70;100.00;100296.16;4108277;28;20214;-44
2023/12/15 08:47:48;;;;;;;2.75;2.55;;;;;;;5.72;100.00;100299.53;4095547;28;20928;-45
2023/12/15 08:49:50;;;;;;;2.83;2.63;;;;;;;5.67;100.00;100304.63;4109079;28;20237;-44
2023/12/15 08:51:51;;;;;;;2.97;2.38;;;;;;;5.69;100.00;100299.88;4093336;28;20220;-44
2023/12/15 08:53:53;;;;;;;3.42;3.00;;;;;;;5.73;100.00;100303.94;4091247;28;20686;-45
2023/12/15 08:55:55;;;;;;;2.95;2.42;;;;;;;5.85;100.00;100310.72;4097154;28;20218;-44
2023/12/15 08:57:56;;;;;;;4.43;3.95;;;;;;;5.81;100.00;100309.34;4096944;28;20259;-45
2023/12/15 08:59:59;;;;;;;3.15;2.92;;;;;;;5.81;100.00;100320.22;4110066;28;20218;-45
2023/12/15 09:02:00;;;;;;;2.72;2.53;;;;;;;5.75;100.00;100324.47;4093983;28;20208;-45
2023/12/15 09:04:02;;;;;;;6.28;3.90;;;;;;;5.81;100.00;100314.78;4092697;28;20822;-44
2023/12/15 09:06:10;;;;;;;2.70;2.33;;;;;;;5.81;100.00;100314.78;4091875;28;20219;-45
2023/12/15 09:08:29;;;;;;;3.10;2.88;;;;;;;5.75;100.00;100312.75;4088053;28;20220;-44
2023/12/15 09:10:33;;;;;;;3.08;2.88;;;;;;;5.91;100.00;100310.88;4090135;28;20295;-44
2023/12/15 09:12:35;;;;;;;3.92;3.63;;;;;;;5.85;100.00;100316.13;4094504;28;20215;-45
2023/12/15 09:14:38;;;;;;;10.13;2.83;;;;;;;5.88;100.00;100315.81;4092156;28;20256;-45
2023/12/15 09:16:40;;;;;;;2.17;2.08;;;;;;;5.91;100.00;100326.31;4098503;28;20803;-44
2023/12/15 09:18:42;;;;;;;6.35;3.70;;;;;;;5.91;100.00;100329.03;4096958;28;20258;-45
2023/12/15 09:20:44;;;;;;;5.70;4.00;;;;;;;5.89;100.00;100336.50;4079247;29;20216;-45
2023/12/15 09:22:46;;;;;;;3.38;2.90;;;;;;;5.95;100.00;100338.53;4078350;29;20267;-45
2023/12/15 09:24:48;;;;;;;2.20;2.10;;;;;;;5.96;100.00;100345.66;4094596;28;20674;-44
2023/12/15 09:26:49;;;;;;;3.30;3.03;;;;;;;5.95;100.00;100352.13;4093421;28;20232;-44
2023/12/15 09:28:51;;;;;;;8.52;3.90;;;;;;;5.99;100.00;100356.16;4094948;28;20302;-44
2023/12/15 09:30:53;;;;;;;3.95;3.17;;;;;;;6.01;100.00;100359.53;4092852;28;20215;-45